sensor_id;sensor_type;location;lat;lon;timestamp;temperature;humidity
4922;DHT22;16625;53.624;10.106;2023-04-12T16:16:49;9.10;99.90
4922;DHT22;16625;53.624;10.106;2023-04-12T16:19:16;9.10;99.90
4922;DHT22;16625;53.624;10.106;2023-04-12T16:21:44;9.10;99.90
4922;DHT22;16625;53.624;10.106;2023-04-12T16:24:11;9.20;99.90
4922;DHT22;16625;53.624;10.106;2023-04-12T16:26:38;9.20;99.90
4922;DHT22;16625;53.624;10.106;2023-04-12T16:29:12;9.30;99.90
4922;DHT22;16625;53.624;10.106;2023-04-12T16:31:40;9.30;99.90
4922;DHT22;16625;53.624;10.106;2023-04-12T16:34:09;9.40;99.90
4922;DHT22;16625;53.624;10.106;2023-04-12T16:36:37;9.40;99.90
4922;DHT22;16625;53.624;10.106;2023-04-12T16:39:11;9.40;99.90
4922;DHT22;16625;53.624;10.106;2023-04-12T16:41:39;9.30;99.90
4922;DHT22;16625;53.624;10.106;2023-04-12T16:44:06;9.30;99.90
4922;DHT22;16625;53.624;10.106;2023-04-12T16:46:38;9.20;99.90
4922;DHT22;16625;53.624;10.106;2023-04-12T16:49:08;9.10;99.90
4922;DHT22;16625;53.624;10.106;2023-04-12T16:51:37;9.20;99.90
4922;DHT22;16625;53.624;10.106;2023-04-12T16:54:10;9.20;99.90
4922;DHT22;16625;53.624;10.106;2023-04-12T16:56:39;9.10;99.90
4922;DHT22;16625;53.624;10.106;2023-04-12T16:59:09;9.00;99.90
4922;DHT22;16625;53.624;10.106;2023-04-12T17:01:36;9.00;99.90
4922;DHT22;16625;53.624;10.106;2023-04-12T17:04:04;9.10;99.90
4922;DHT22;16625;53.624;10.106;2023-04-12T17:06:40;9.00;99.90
4922;DHT22;16625;53.624;10.106;2023-04-12T17:09:07;9.00;99.90
4922;DHT22;16625;53.624;10.106;2023-04-12T17:11:34;8.90;99.90
4922;DHT22;16625;53.624;10.106;2023-04-12T17:14:02;8.90;99.90
4922;DHT22;16625;53.624;10.106;2023-04-12T17:16:31;9.10;99.90
4922;DHT22;16625;53.624;10.106;2023-04-12T17:19:01;9.10;99.90
4922;DHT22;16625;53.624;10.106;2023-04-12T17:21:28;9.00;99.90
4922;DHT22;16625;53.624;10.106;2023-04-12T17:23:56;9.00;99.90
4922;DHT22;16625;53.624;10.106;2023-04-12T17:26:29;9.10;99.90
4922;DHT22;16625;53.624;10.106;2023-04-12T17:28:57;8.90;99.90
4922;DHT22;16625;53.624;10.106;2023-04-12T17:31:25;8.90;99.90
4922;DHT22;16625;53.624;10.106;2023-04-12T17:33:56;8.90;99.90
4922;DHT22;16625;53.624;10.106;2023-04-12T17:36:25;8.90;99.90
4922;DHT22;16625;53.624;10.106;2023-04-12T17:38:59;8.70;99.90
4922;DHT22;16625;53.624;10.106;2023-04-12T17:41:30;8.90;99.90
4922;DHT22;16625;53.624;10.106;2023-04-12T17:44:08;8.80;99.90
4922;DHT22;16625;53.624;10.106;2023-04-12T17:46:56;8.80;99.90
4922;DHT22;16625;53.624;10.106;2023-04-12T17:49:23;8.80;99.90
4922;DHT22;16625;53.624;10.106;2023-04-12T17:51:52;8.70;99.90
4922;DHT22;16625;53.624;10.106;2023-04-12T17:54:22;8.70;99.90
4922;DHT22;16625;53.624;10.106;2023-04-12T17:56:53;8.50;99.90
4922;DHT22;16625;53.624;10.106;2023-04-12T17:59:21;8.60;99.90
4922;DHT22;16625;53.624;10.106;2023-04-12T18:01:49;8.60;99.90
4922;DHT22;16625;53.624;10.106;2023-04-12T18:04:43;8.50;99.90
4922;DHT22;16625;53.624;10.106;2023-04-12T18:07:22;8.40;99.90
4922;DHT22;16625;53.624;10.106;2023-04-12T18:09:54;8.60;99.90
4922;DHT22;16625;53.624;10.106;2023-04-12T18:12:22;8.60;99.90
4922;DHT22;16625;53.624;10.106;2023-04-12T18:15:18;8.50;99.90
4922;DHT22;16625;53.624;10.106;2023-04-12T18:18:05;8.60;99.90
4922;DHT22;16625;53.624;10.106;2023-04-12T18:20:58;8.60;99.90
4922;DHT22;16625;53.624;10.106;2023-04-12T18:24:05;8.60;99.90
4922;DHT22;16625;53.624;10.106;2023-04-12T18:26:54;8.50;99.90
4922;DHT22;16625;53.624;10.106;2023-04-12T18:29:47;8.50;99.90
4922;DHT22;16625;53.624;10.106;2023-04-12T18:33:11;8.50;99.90
4922;DHT22;16625;53.624;10.106;2023-04-12T18:38:26;8.50;99.90
4922;DHT22;16625;53.624;10.106;2023-04-12T18:41:02;8.50;99.90
4922;DHT22;16625;53.624;10.106;2023-04-12T18:47:06;8.40;99.90
4922;DHT22;16625;53.624;10.106;2023-04-12T18:50:09;8.50;99.90
4922;DHT22;16625;53.624;10.106;2023-04-12T18:56:17;8.60;99.90
4922;DHT22;16625;53.624;10.106;2023-04-12T18:59:17;8.50;99.90
4922;DHT22;16625;53.624;10.106;2023-04-12T19:01:56;8.60;99.90
4922;DHT22;16625;53.624;10.106;2023-04-12T19:04:25;8.60;99.90
4922;DHT22;16625;53.624;10.106;2023-04-12T19:06:55;8.60;99.90
4922;DHT22;16625;53.624;10.106;2023-04-12T19:09:24;8.60;99.90
4922;DHT22;16625;53.624;10.106;2023-04-12T19:11:54;8.50;99.90
4922;DHT22;16625;53.624;10.106;2023-04-12T19:14:25;8.50;99.90
4922;DHT22;16625;53.624;10.106;2023-04-12T19:16:54;8.40;99.90
4922;DHT22;16625;53.624;10.106;2023-04-12T19:19:23;8.40;99.90
4922;DHT22;16625;53.624;10.106;2023-04-12T19:21:51;8.40;99.90
4922;DHT22;16625;53.624;10.106;2023-04-12T19:24:18;8.40;99.90
4922;DHT22;16625;53.624;10.106;2023-04-12T19:26:46;8.20;99.90
4922;DHT22;16625;53.624;10.106;2023-04-12T19:29:15;8.10;99.90
4922;DHT22;16625;53.624;10.106;2023-04-12T19:31:45;8.20;99.90
4922;DHT22;16625;53.624;10.106;2023-04-12T19:34:13;8.00;99.90
4922;DHT22;16625;53.624;10.106;2023-04-12T19:36:41;7.90;99.90
4922;DHT22;16625;53.624;10.106;2023-04-12T19:39:13;8.10;99.90
4922;DHT22;16625;53.624;10.106;2023-04-12T19:41:43;8.10;99.90
4922;DHT22;16625;53.624;10.106;2023-04-12T19:44:12;8.00;99.90
4922;DHT22;16625;53.624;10.106;2023-04-12T19:46:40;8.10;99.90
4922;DHT22;16625;53.624;10.106;2023-04-12T19:49:15;8.10;99.90
4922;DHT22;16625;53.624;10.106;2023-04-12T19:51:43;8.10;99.90
4922;DHT22;16625;53.624;10.106;2023-04-12T19:54:10;8.20;99.90
4922;DHT22;16625;53.624;10.106;2023-04-12T19:56:38;8.10;99.90
4922;DHT22;16625;53.624;10.106;2023-04-12T19:59:05;8.20;99.90
4922;DHT22;16625;53.624;10.106;2023-04-12T20:01:35;7.90;99.90
4922;DHT22;16625;53.624;10.106;2023-04-12T20:04:13;7.80;99.90
4922;DHT22;16625;53.624;10.106;2023-04-12T20:06:41;7.60;99.90
4922;DHT22;16625;53.624;10.106;2023-04-12T20:09:09;7.50;99.90
4922;DHT22;16625;53.624;10.106;2023-04-12T20:11:36;7.50;99.90
4922;DHT22;16625;53.624;10.106;2023-04-12T20:14:05;7.30;99.90
4922;DHT22;16625;53.624;10.106;2023-04-12T20:16:33;7.20;99.90
4922;DHT22;16625;53.624;10.106;2023-04-12T20:19:00;7.10;99.90
4922;DHT22;16625;53.624;10.106;2023-04-12T20:21:31;7.00;99.90
4922;DHT22;16625;53.624;10.106;2023-04-12T20:23:59;6.90;99.90
4922;DHT22;16625;53.624;10.106;2023-04-12T20:26:26;6.90;99.90
4922;DHT22;16625;53.624;10.106;2023-04-12T20:28:56;6.80;99.90
4922;DHT22;16625;53.624;10.106;2023-04-12T20:31:25;6.70;99.90
4922;DHT22;16625;53.624;10.106;2023-04-12T20:33:53;6.80;99.90
4922;DHT22;16625;53.624;10.106;2023-04-12T20:36:20;6.70;99.90
4922;DHT22;16625;53.624;10.106;2023-04-12T20:38:49;6.60;99.90
4922;DHT22;16625;53.624;10.106;2023-04-12T20:53:02;5.90;99.90
4922;DHT22;16625;53.624;10.106;2023-04-12T20:56:25;5.90;99.90
4922;DHT22;16625;53.624;10.106;2023-04-12T20:59:34;5.70;99.90
4922;DHT22;16625;53.624;10.106;2023-04-12T22:24:11;4.70;99.90
4922;DHT22;16625;53.624;10.106;2023-04-12T22:27:21;4.70;99.90
4922;DHT22;16625;53.624;10.106;2023-04-12T22:40:25;4.60;99.90
4922;DHT22;16625;53.624;10.106;2023-04-12T22:47:07;4.50;99.90
4922;DHT22;16625;53.624;10.106;2023-04-12T22:50:16;4.50;99.90
4922;DHT22;16625;53.624;10.106;2023-04-12T22:54:17;4.50;99.90
4922;DHT22;16625;53.624;10.106;2023-04-12T23:03:19;4.40;99.90
4922;DHT22;16625;53.624;10.106;2023-04-12T23:48:02;4.70;99.90
